Time;durP1;ratioP1;P1;durP2;ratioP2;P2;SDS_P1;SDS_P2;PMS_P1;PMS_P2;Temp;Humidity;BMP_temperature;BMP_pressure;BME280_temperature;BME280_humidity;BME280_pressure;Samples;Min_cycle;Max_cycle;Signal;HPM_P1;HPM_P2
2021/08/25 00:01:53;;;;;;;8.57;7.77;;;;;;;14.21;93.58;99324.91;4999024;28;103230;-69
2021/08/25 00:04:21;;;;;;;14.10;12.70;;;;;;;13.36;98.65;99331.41;4998612;28;102589;-69
2021/08/25 00:06:49;;;;;;;12.33;11.30;;;;;;;13.24;100.00;99330.50;5002347;28;103191;-68
2021/08/25 00:09:17;;;;;;;11.63;10.70;;;;;;;13.48;100.00;99333.13;4986225;28;103495;-68
2021/08/25 00:11:44;;;;;;;9.33;8.53;;;;;;;13.65;98.58;99327.44;4997133;28;103217;-69
2021/08/25 00:14:12;;;;;;;8.47;7.77;;;;;;;13.76;97.01;99323.94;4998106;28;102555;-68
2021/08/25 00:16:42;;;;;;;8.63;7.93;;;;;;;13.82;96.98;99328.81;4999543;28;102620;-60
2021/08/25 00:19:10;;;;;;;10.23;9.33;;;;;;;13.83;96.41;99319.88;5000086;28;104057;-68
2021/08/25 00:21:37;;;;;;;9.47;8.67;;;;;;;13.80;96.97;99322.78;4992152;28;103049;-69
2021/08/25 00:24:05;;;;;;;8.10;7.40;;;;;;;13.84;96.02;99310.94;4998723;28;102744;-68
2021/08/25 00:26:33;;;;;;;7.87;7.17;;;;;;;13.91;95.48;99312.19;4993746;28;103991;-67
2021/08/25 00:29:01;;;;;;;9.80;8.90;;;;;;;13.95;94.71;99309.16;4967636;28;104162;-67
2021/08/25 00:31:29;;;;;;;9.13;8.10;;;;;;;13.95;94.36;99308.31;4989218;28;103277;-67
2021/08/25 00:34:00;;;;;;;9.27;8.30;;;;;;;13.94;93.88;99307.50;5001138;28;102636;-58
2021/08/25 00:36:27;;;;;;;7.77;7.07;;;;;;;13.92;94.05;99301.44;4996812;28;103731;-67
2021/08/25 00:38:55;;;;;;;7.00;6.40;;;;;;;13.87;94.39;99297.44;4999221;28;103297;-67
2021/08/25 00:41:23;;;;;;;10.60;9.70;;;;;;;13.83;94.17;99293.34;4996424;28;103218;-67
2021/08/25 00:43:51;;;;;;;11.03;10.13;;;;;;;13.66;95.77;99301.72;4999333;28;102670;-58
2021/08/25 00:46:19;;;;;;;8.20;7.50;;;;;;;13.73;95.84;99293.16;4989778;28;102751;-58
2021/08/25 00:48:48;;;;;;;8.00;7.30;;;;;;;13.80;94.75;99297.06;4995345;28;104712;-59
2021/08/25 00:51:17;;;;;;;7.87;7.20;;;;;;;13.83;94.49;99298.66;4991182;28;103223;-68
2021/08/25 00:53:46;;;;;;;6.80;6.30;;;;;;;13.84;94.54;99300.31;4999181;28;103093;-68
2021/08/25 00:56:14;;;;;;;10.03;9.17;;;;;;;13.87;93.40;99298.28;4996110;28;103310;-68
2021/08/25 00:58:44;;;;;;;7.73;6.93;;;;;;;13.72;95.48;99295.97;5000413;28;103341;-68
2021/08/25 01:01:16;;;;;;;10.73;9.83;;;;;;;13.55;96.08;99301.69;4985900;28;103804;-69
2021/08/25 01:03:49;;;;;;;13.47;12.27;;;;;;;13.08;98.18;99291.94;4978993;28;102703;-68
2021/08/25 01:06:24;;;;;;;13.13;12.00;;;;;;;12.91;100.00;99298.44;4999389;28;103219;-68
2021/08/25 01:08:52;;;;;;;12.80;11.50;;;;;;;12.83;100.00;99294.66;4992243;28;103303;-59
2021/08/25 01:11:20;;;;;;;13.80;12.40;;;;;;;12.94;100.00;99295.53;4992540;28;103234;-59
2021/08/25 01:13:48;;;;;;;13.30;12.00;;;;;;;13.01;100.00;99288.84;4997927;28;102955;-59
2021/08/25 01:16:17;;;;;;;12.33;11.13;;;;;;;13.08;100.00;99282.16;4996090;28;102922;-67
2021/08/25 01:18:47;;;;;;;9.03;7.60;;;;;;;13.30;98.84;99284.91;4986055;28;103312;-68
2021/08/25 01:21:16;;;;;;;9.10;8.40;;;;;;;13.41;97.56;99272.66;4999828;28;103226;-68
2021/08/25 01:23:47;;;;;;;8.73;8.03;;;;;;;13.40;97.26;99273.63;4979706;28;102830;-67
2021/08/25 01:26:16;;;;;;;9.03;8.27;;;;;;;13.50;96.67;99270.16;4979362;28;102738;-68
2021/08/25 01:28:50;;;;;;;7.93;7.23;;;;;;;13.41;97.10;99270.03;4992662;28;103817;-68
2021/08/25 01:31:21;;;;;;;12.30;9.43;;;;;;;13.49;96.87;99257.88;4975958;28;103219;-68
2021/08/25 01:33:49;;;;;;;10.33;9.53;;;;;;;13.56;96.14;99258.25;4991232;28;102725;-68
2021/08/25 01:36:18;;;;;;;12.03;10.97;;;;;;;13.28;96.93;99260.31;5000013;28;102975;-68
2021/08/25 01:38:50;;;;;;;9.80;9.00;;;;;;;13.21;98.02;99256.44;4996257;28;103712;-68
2021/08/25 01:41:21;;;;;;;9.10;8.40;;;;;;;13.25;97.86;99257.88;4998968;28;103248;-67
2021/08/25 01:43:49;;;;;;;8.83;8.13;;;;;;;13.30;97.74;99253.06;4992502;28;102792;-59
2021/08/25 01:46:26;;;;;;;10.90;9.93;;;;;;;13.28;96.89;99262.97;4993486;28;104105;-59
2021/08/25 01:48:55;;;;;;;11.07;9.93;;;;;;;13.07;97.59;99259.25;4990728;28;104085;-68
2021/08/25 01:51:24;;;;;;;13.63;12.33;;;;;;;12.63;99.73;99274.88;4997739;28;103276;-68
2021/08/25 01:53:52;;;;;;;10.63;9.73;;;;;;;12.66;100.00;99278.13;4980275;28;102769;-68
2021/08/25 01:56:20;;;;;;;14.13;12.93;;;;;;;12.49;100.00;99280.31;4993887;28;104155;-68
2021/08/25 01:58:48;;;;;;;11.03;10.13;;;;;;;12.59;100.00;99281.34;4971326;28;104437;-68
2021/08/25 02:01:16;;;;;;;12.00;10.90;;;;;;;12.79;100.00;99272.81;4979150;28;103234;-68
2021/08/25 02:03:46;;;;;;;8.77;8.07;;;;;;;12.92;100.00;99270.94;4995393;28;103077;-70
2021/08/25 02:06:15;;;;;;;9.97;9.07;;;;;;;13.02;98.79;99269.34;4992199;28;103998;-67
2021/08/25 02:08:43;;;;;;;8.37;7.57;;;;;;;13.06;97.66;99264.63;4996642;28;103919;-58
2021/08/25 02:11:11;;;;;;;8.40;7.70;;;;;;;13.03;97.61;99259.53;4993764;28;103251;-58
2021/08/25 02:13:39;;;;;;;9.73;8.93;;;;;;;12.90;97.52;99259.63;4998371;28;102575;-59
2021/08/25 02:16:07;;;;;;;12.63;11.43;;;;;;;12.69;98.26;99256.69;4991013;28;102979;-62
2021/08/25 02:18:35;;;;;;;11.57;10.47;;;;;;;12.59;99.35;99260.13;4999232;28;103286;-68
2021/08/25 02:21:05;;;;;;;9.23;8.53;;;;;;;12.67;100.00;99258.63;4992034;28;103216;-58
2021/08/25 02:23:32;;;;;;;8.80;8.10;;;;;;;12.63;100.00;99256.31;4995143;28;102836;-59
2021/08/25 02:26:00;;;;;;;7.50;6.80;;;;;;;12.73;99.48;99252.88;4993330;28;102703;-59
2021/08/25 02:28:28;;;;;;;9.20;8.40;;;;;;;12.75;98.06;99258.06;4984052;28;103306;-59
2021/08/25 02:30:56;;;;;;;8.17;7.30;;;;;;;12.79;97.95;99256.91;4979550;28;103249;-68
2021/08/25 02:33:25;;;;;;;10.07;9.27;;;;;;;12.75;97.99;99266.00;4997325;28;102675;-68
2021/08/25 02:35:53;;;;;;;9.30;8.50;;;;;;;12.73;97.62;99265.28;4975374;28;103993;-67
2021/08/25 02:38:22;;;;;;;8.50;7.80;;;;;;;12.73;97.61;99257.34;4994725;28;103257;-67
2021/08/25 02:40:50;;;;;;;7.90;7.23;;;;;;;12.78;97.40;99255.19;4997550;28;103262;-58
2021/08/25 02:43:18;;;;;;;9.00;8.20;;;;;;;12.79;96.43;99257.75;4991070;28;102904;-67
2021/08/25 02:45:46;;;;;;;10.57;9.67;;;;;;;12.78;96.47;99249.88;4992932;28;103746;-68
2021/08/25 02:48:14;;;;;;;9.50;8.73;;;;;;;12.55;97.77;99248.03;4981523;28;103381;-58
2021/08/25 02:50:42;;;;;;;12.90;11.60;;;;;;;12.37;99.27;99244.94;4997718;28;103271;-58
2021/08/25 02:53:10;;;;;;;9.83;8.93;;;;;;;12.43;99.13;99233.88;4993949;28;102958;-67
2021/08/25 02:55:39;;;;;;;9.07;8.27;;;;;;;12.48;99.59;99228.25;4995973;28;103936;-58
2021/08/25 02:58:07;;;;;;;13.50;12.30;;;;;;;12.27;99.25;99233.25;4974126;28;104095;-58
2021/08/25 03:00:36;;;;;;;13.70;12.47;;;;;;;12.18;100.00;99229.47;4985497;28;103350;-67
2021/08/25 03:03:04;;;;;;;8.70;7.93;;;;;;;12.37;100.00;99225.53;4990164;28;102705;-58
2021/08/25 03:05:32;;;;;;;8.33;7.53;;;;;;;12.49;99.72;99225.47;4994433;28;102679;-67
2021/08/25 03:08:01;;;;;;;6.97;6.37;;;;;;;12.57;98.66;99219.66;4997404;28;103268;-67
2021/08/25 03:10:29;;;;;;;8.30;7.57;;;;;;;12.61;97.65;99221.09;4990213;28;103238;-59
2021/08/25 03:12:58;;;;;;;7.90;7.20;;;;;;;12.57;97.82;99217.00;4992810;28;102743;-58
2021/08/25 03:15:26;;;;;;;8.40;7.70;;;;;;;12.57;97.73;99219.66;4993429;28;102700;-59
2021/08/25 03:17:54;;;;;;;9.10;8.27;;;;;;;12.59;97.60;99223.03;4999377;28;103446;-58
2021/08/25 03:20:22;;;;;;;9.50;8.53;;;;;;;12.47;98.53;99215.94;4981855;28;103212;-58
2021/08/25 03:22:50;;;;;;;13.03;11.77;;;;;;;12.29;98.25;99211.97;4997972;28;102668;-59
2021/08/25 03:25:19;;;;;;;10.00;9.20;;;;;;;12.34;100.00;99217.78;4978399;28;102787;-58
2021/08/25 03:27:46;;;;;;;9.23;8.43;;;;;;;12.32;99.41;99209.13;4998248;28;103303;-58
2021/08/25 03:30:16;;;;;;;10.83;9.83;;;;;;;12.14;100.00;99214.75;4989617;28;103200;-67
2021/08/25 03:32:44;;;;;;;8.67;7.93;;;;;;;12.29;100.00;99210.19;4996928;28;103683;-68
2021/08/25 03:35:12;;;;;;;12.00;10.87;;;;;;;12.28;98.78;99207.63;4980823;28;102923;-58
2021/08/25 03:37:40;;;;;;;14.10;12.73;;;;;;;11.85;100.00;99215.94;4980590;28;103301;-58
2021/08/25 03:40:09;;;;;;;13.20;12.00;;;;;;;11.77;100.00;99218.25;4991008;28;103233;-58
2021/08/25 03:42:37;;;;;;;10.80;9.70;;;;;;;11.95;100.00;99216.16;5001185;28;102855;-58
2021/08/25 03:45:07;;;;;;;12.67;11.47;;;;;;;12.03;100.00;99209.38;4991082;28;104133;-68
2021/08/25 03:47:36;;;;;;;9.87;9.07;;;;;;;11.98;100.00;99206.19;4990661;28;103855;-58
2021/08/25 03:50:05;;;;;;;10.20;9.13;;;;;;;12.07;100.00;99202.06;4991799;28;103250;-58
2021/08/25 03:52:32;;;;;;;8.90;8.10;;;;;;;12.14;100.00;99196.22;4996932;28;102578;-58
2021/08/25 03:55:01;;;;;;;8.83;7.93;;;;;;;12.25;100.00;99205.19;4996398;28;103218;-58
2021/08/25 03:57:29;;;;;;;7.53;6.83;;;;;;;12.29;99.66;99201.38;4993609;28;103345;-58
2021/08/25 03:59:58;;;;;;;9.00;8.27;;;;;;;12.23;98.98;99200.00;4993383;28;103323;-58
2021/08/25 04:02:26;;;;;;;10.17;9.27;;;;;;;12.11;99.46;99196.44;4991860;28;102766;-58
2021/08/25 04:04:55;;;;;;;8.10;7.50;;;;;;;12.23;99.56;99193.88;4990897;28;102630;-60
2021/08/25 04:07:23;;;;;;;7.43;6.83;;;;;;;12.27;98.82;99190.06;4995785;28;103260;-59
2021/08/25 04:09:51;;;;;;;7.63;7.03;;;;;;;12.23;98.53;99188.56;4998581;28;103210;-59
2021/08/25 04:12:20;;;;;;;13.50;12.20;;;;;;;11.66;99.85;99183.72;4995473;28;102978;-59
2021/08/25 04:14:48;;;;;;;13.30;12.03;;;;;;;11.67;100.00;99196.00;4989516;28;102888;-58
2021/08/25 04:17:16;;;;;;;9.77;8.87;;;;;;;11.86;100.00;99195.59;4987054;28;103252;-58
2021/08/25 04:19:43;;;;;;;14.53;13.17;;;;;;;11.79;100.00;99199.66;4991350;28;103272;-58
2021/08/25 04:22:13;;;;;;;10.27;9.37;;;;;;;11.71;100.00;99192.22;4990670;28;102633;-59
2021/08/25 04:24:41;;;;;;;11.70;10.70;;;;;;;11.85;100.00;99189.47;4992111;28;102925;-67
2021/08/25 04:27:09;;;;;;;11.53;10.63;;;;;;;11.93;100.00;99192.41;4976076;28;103495;-68
2021/08/25 04:29:37;;;;;;;11.33;10.33;;;;;;;11.84;100.00;99197.53;4992148;28;103215;-67
2021/08/25 04:32:05;;;;;;;9.23;8.43;;;;;;;11.88;100.00;99201.63;4971718;28;102724;-67
2021/08/25 04:34:33;;;;;;;13.03;11.93;;;;;;;11.91;100.00;99204.91;4990911;28;102625;-68
2021/08/25 04:37:01;;;;;;;10.47;9.57;;;;;;;11.93;100.00;99207.47;4989182;28;103247;-58
2021/08/25 04:39:31;;;;;;;9.43;8.63;;;;;;;11.98;100.00;99200.91;4988631;28;103090;-58
2021/08/25 04:41:59;;;;;;;11.80;10.80;;;;;;;12.02;100.00;99205.00;4978085;28;102695;-59
2021/08/25 04:44:27;;;;;;;8.70;7.90;;;;;;;12.09;100.00;99192.19;4989689;28;103131;-59
2021/08/25 04:46:55;;;;;;;8.93;8.07;;;;;;;12.17;99.25;99190.69;4970638;28;103923;-59
2021/08/25 04:49:23;;;;;;;12.40;11.30;;;;;;;12.07;97.56;99202.88;4992812;28;104159;-68
2021/08/25 04:51:51;;;;;;;9.60;8.70;;;;;;;12.10;98.86;99209.75;4995396;28;102665;-68
2021/08/25 04:54:19;;;;;;;10.93;10.03;;;;;;;12.15;98.69;99203.19;4994463;28;103981;-69
2021/08/25 04:56:48;;;;;;;8.50;7.80;;;;;;;12.21;98.02;99196.59;4996771;28;103217;-68
2021/08/25 04:59:16;;;;;;;15.47;11.87;;;;;;;12.00;97.39;99203.44;4996732;28;103414;-69
2021/08/25 05:01:44;;;;;;;9.03;8.23;;;;;;;11.89;100.00;99203.34;4995866;28;102588;-68
2021/08/25 05:04:13;;;;;;;10.53;9.63;;;;;;;12.01;100.00;99194.53;4995741;28;103861;-68
2021/08/25 05:06:41;;;;;;;9.40;8.60;;;;;;;12.09;99.39;99201.00;4991906;28;103352;-68
2021/08/25 05:09:09;;;;;;;8.20;7.50;;;;;;;12.10;98.55;99196.53;4994228;28;103201;-69
2021/08/25 05:11:37;;;;;;;7.93;7.23;;;;;;;12.16;98.48;99198.75;4996041;28;103046;-59
2021/08/25 05:14:06;;;;;;;7.70;7.00;;;;;;;12.23;97.99;99209.75;4993362;28;102922;-59
2021/08/25 05:16:34;;;;;;;7.93;7.27;;;;;;;12.27;97.97;99208.59;4972514;28;103733;-59
2021/08/25 05:19:02;;;;;;;10.57;9.67;;;;;;;12.24;98.57;99206.16;5000321;28;103273;-59
2021/08/25 05:21:30;;;;;;;10.00;9.20;;;;;;;12.17;100.00;99205.75;4994013;28;103232;-68
2021/08/25 05:24:01;;;;;;;10.83;9.90;;;;;;;12.35;99.80;99208.91;5002090;28;102648;-69
2021/08/25 05:26:29;;;;;;;8.17;7.47;;;;;;;12.45;99.43;99204.63;4995888;28;103244;-69
2021/08/25 05:28:57;;;;;;;9.00;8.13;;;;;;;12.53;99.06;99207.56;4985111;28;103255;-70
2021/08/25 05:31:27;;;;;;;11.20;10.30;;;;;;;12.59;98.55;99213.28;4992923;28;103533;-68
2021/08/25 05:33:56;;;;;;;7.73;7.03;;;;;;;12.63;98.68;99211.25;4996707;28;102739;-68
2021/08/25 05:36:24;;;;;;;10.90;9.87;;;;;;;12.72;97.97;99213.22;4976496;28;103442;-68
2021/08/25 05:38:52;;;;;;;16.37;12.87;;;;;;;12.56;99.27;99210.84;4993776;28;103277;-68
2021/08/25 05:41:20;;;;;;;10.47;9.57;;;;;;;12.63;100.00;99219.22;4993723;28;102669;-68
2021/08/25 05:43:48;;;;;;;9.63;8.80;;;;;;;12.85;100.00;99211.38;4978820;28;102731;-66
2021/08/25 05:46:16;;;;;;;8.70;8.00;;;;;;;13.01;100.00;99219.03;4989844;28;103304;-68
2021/08/25 05:48:46;;;;;;;9.23;8.43;;;;;;;13.06;100.00;99217.72;4989966;28;103537;-68
2021/08/25 05:51:14;;;;;;;14.47;13.07;;;;;;;13.04;99.43;99210.84;4985859;28;102906;-69
2021/08/25 05:53:42;;;;;;;11.50;10.40;;;;;;;13.24;99.46;99213.75;4992232;28;102774;-69
2021/08/25 05:56:12;;;;;;;15.93;14.30;;;;;;;13.29;99.08;99211.59;4999217;28;103271;-68
2021/08/25 05:58:42;;;;;;;13.00;11.70;;;;;;;13.23;100.00;99212.06;4990934;28;103243;-69
2021/08/25 06:01:13;;;;;;;11.77;10.67;;;;;;;13.40;99.34;99204.63;4978892;28;102655;-68
2021/08/25 06:03:41;;;;;;;10.70;9.67;;;;;;;13.61;99.11;99209.16;4990011;28;102911;-68
2021/08/25 06:06:12;;;;;;;10.23;9.33;;;;;;;13.70;97.19;99207.59;4992498;28;103268;-68
2021/08/25 06:08:41;;;;;;;13.50;12.13;;;;;;;13.46;98.13;99212.13;4989795;28;103221;-68
2021/08/25 06:11:09;;;;;;;13.83;12.43;;;;;;;13.41;100.00;99216.94;4979353;28;103199;-68
2021/08/25 06:13:39;;;;;;;15.43;13.90;;;;;;;13.30;99.95;99215.09;4991715;28;102728;-60
2021/08/25 06:16:08;;;;;;;14.53;13.23;;;;;;;13.62;98.34;99209.97;4984695;28;103290;-59
2021/08/25 06:18:36;;;;;;;15.27;13.70;;;;;;;13.62;98.44;99204.66;4964639;28;103289;-58
2021/08/25 06:21:04;;;;;;;11.87;10.83;;;;;;;13.67;99.78;99213.97;4998527;28;102990;-59
2021/08/25 06:23:34;;;;;;;11.77;10.77;;;;;;;13.58;99.97;99200.56;4999171;28;102653;-59
2021/08/25 06:26:02;;;;;;;11.13;10.07;;;;;;;14.06;98.31;99202.09;4996197;28;103306;-60
2021/08/25 06:28:30;;;;;;;10.77;9.87;;;;;;;14.23;96.65;99201.56;4994157;28;103328;-59
2021/08/25 06:30:58;;;;;;;13.93;12.63;;;;;;;13.96;97.93;99198.44;4993355;28;102752;-59
2021/08/25 06:33:26;;;;;;;14.80;13.50;;;;;;;13.90;97.11;99196.25;4999725;28;102657;-59
2021/08/25 06:35:54;;;;;;;14.00;12.53;;;;;;;13.91;98.79;99196.16;4999520;28;103259;-58
2021/08/25 06:38:22;;;;;;;14.67;13.27;;;;;;;14.05;99.08;99197.72;4998960;28;103127;-59
2021/08/25 06:40:51;;;;;;;14.07;12.70;;;;;;;14.13;96.72;99195.31;4995749;28;102695;-59
2021/08/25 06:43:19;;;;;;;13.87;12.53;;;;;;;14.01;96.99;99192.78;4990707;28;102825;-59
2021/08/25 06:45:48;;;;;;;13.00;11.70;;;;;;;14.38;95.13;99199.56;4993135;28;103279;-59
2021/08/25 06:48:15;;;;;;;13.23;12.07;;;;;;;14.12;94.95;99198.94;4987277;28;103221;-63
2021/08/25 06:50:44;;;;;;;11.53;10.37;;;;;;;14.30;95.92;99197.47;4992212;28;103679;-59
2021/08/25 06:53:12;;;;;;;10.73;9.83;;;;;;;14.44;94.69;99197.25;4975680;28;103207;-58
2021/08/25 06:55:40;;;;;;;11.03;9.93;;;;;;;14.99;93.13;99192.75;4995973;28;103308;-59
2021/08/25 06:58:09;;;;;;;10.43;9.33;;;;;;;15.25;91.09;99191.44;4993168;28;103251;-59
2021/08/25 07:00:37;;;;;;;13.43;12.23;;;;;;;14.37;92.50;99193.38;4992149;28;102640;-58
2021/08/25 07:03:05;;;;;;;10.77;9.73;;;;;;;14.86;92.14;99184.09;4973466;28;102772;-59
2021/08/25 07:05:33;;;;;;;11.97;10.83;;;;;;;14.99;90.76;99184.75;4992880;28;104199;-59
2021/08/25 07:08:02;;;;;;;11.00;9.87;;;;;;;15.25;90.97;99180.78;4995909;28;103276;-59
2021/08/25 07:17:58;;;;;;;10.63;9.57;;;;;;;15.55;84.71;99177.41;4981872;28;103183;-59
2021/08/25 07:20:43;;;;;;;9.63;8.57;;;;;;;16.03;84.80;99182.97;4978681;28;103441;-59
2021/08/25 07:23:11;;;;;;;9.30;8.50;;;;;;;16.40;83.44;99180.59;4991351;28;102648;-58
2021/08/25 07:25:39;;;;;;;9.53;8.73;;;;;;;16.21;83.78;99192.03;4995061;28;102738;-59
2021/08/25 07:28:07;;;;;;;8.90;8.10;;;;;;;15.90;85.43;99177.88;4993600;28;104004;-58
2021/08/25 07:30:35;;;;;;;10.47;9.57;;;;;;;16.26;82.79;99179.16;4995418;28;103361;-64
2021/08/25 07:33:11;;;;;;;10.63;9.63;;;;;;;16.56;82.50;99181.78;4984629;28;102566;-64
2021/08/25 07:35:39;;;;;;;10.50;9.47;;;;;;;16.80;83.53;99168.94;4999013;28;104045;-59
2021/08/25 07:38:07;;;;;;;10.80;9.70;;;;;;;16.48;83.41;99165.59;4995077;28;103854;-59
2021/08/25 07:40:35;;;;;;;11.23;10.13;;;;;;;16.24;83.44;99171.31;4993583;28;104084;-58
2021/08/25 07:43:05;;;;;;;11.40;10.30;;;;;;;16.26;83.61;99173.81;4986822;28;102672;-58
2021/08/25 07:45:35;;;;;;;11.90;10.13;;;;;;;16.64;82.48;99176.66;4994998;28;102705;-59
2021/08/25 07:48:06;;;;;;;9.80;8.90;;;;;;;16.81;81.63;99175.94;4995113;28;103397;-59
2021/08/25 07:50:34;;;;;;;11.63;9.77;;;;;;;16.64;81.91;99167.78;4994083;28;103251;-59
2021/08/25 07:53:02;;;;;;;11.40;10.40;;;;;;;17.16;80.82;99163.88;4959148;28;102811;-59
2021/08/25 07:55:30;;;;;;;8.17;7.47;;;;;;;17.98;79.02;99161.50;4998032;28;102726;-59
2021/08/25 07:57:58;;;;;;;9.27;8.35;;;;;;;18.14;77.88;99161.72;4973056;28;103282;-59
2021/08/25 08:00:26;;;;;;;10.38;9.38;;;;;;;17.38;77.47;99168.91;4997076;28;103223;-58
2021/08/25 08:02:55;;;;;;;9.10;8.30;;;;;;;18.34;76.64;99163.31;4996158;28;102713;-59
2021/08/25 08:05:25;;;;;;;10.35;9.40;;;;;;;17.90;75.67;99162.25;4999490;28;103112;-58
2021/08/25 08:07:53;;;;;;;7.95;7.15;;;;;;;19.24;73.81;99165.97;4978484;28;103253;-58
2021/08/25 08:10:21;;;;;;;8.05;7.35;;;;;;;19.66;72.35;99173.22;4977609;28;103245;-58
2021/08/25 08:12:50;;;;;;;9.95;8.23;;;;;;;19.77;73.38;99166.75;4993708;28;102631;-58
2021/08/25 08:15:18;;;;;;;9.73;8.82;;;;;;;19.17;72.59;99157.72;5001700;28;104033;-58
2021/08/25 08:17:47;;;;;;;9.20;8.30;;;;;;;19.47;71.70;99160.00;5002355;28;103221;-63
2021/08/25 08:20:17;;;;;;;8.75;7.97;;;;;;;19.51;70.32;99163.19;4968797;28;103206;-64
2021/08/25 08:22:46;;;;;;;9.20;8.30;;;;;;;19.37;72.22;99163.75;4999227;28;103077;-63
2021/08/25 08:25:15;;;;;;;8.95;8.15;;;;;;;20.45;69.72;99161.44;4998961;28;102684;-65
2021/08/25 08:27:43;;;;;;;9.65;8.13;;;;;;;19.89;68.01;99167.34;4998401;28;103074;-65
2021/08/25 08:30:12;;;;;;;8.80;8.00;;;;;;;19.09;70.27;99154.94;4996666;28;103257;-65
2021/08/25 08:32:40;;;;;;;9.25;8.45;;;;;;;19.46;68.65;99157.47;4982193;28;102752;-59
2021/08/25 08:35:09;;;;;;;7.88;6.70;;;;;;;20.47;68.78;99146.00;4999654;28;102613;-60
2021/08/25 08:37:37;;;;;;;7.43;6.72;;;;;;;20.84;66.53;99143.75;5000575;28;103271;-59
2021/08/25 08:40:08;;;;;;;7.55;6.85;;;;;;;21.23;63.38;99139.47;4997025;28;103347;-60
2021/08/25 08:42:37;;;;;;;6.97;6.28;;;;;;;19.87;68.95;99155.94;4991424;28;102613;-59
2021/08/25 08:45:07;;;;;;;7.68;6.18;;;;;;;20.85;66.81;99145.47;4978024;28;103876;-60
2021/08/25 08:47:36;;;;;;;6.50;5.90;;;;;;;22.03;63.84;99145.78;4981257;28;104359;-58
2021/08/25 08:50:05;;;;;;;7.63;6.93;;;;;;;21.28;63.70;99142.50;4984398;28;103208;-60
2021/08/25 08:52:33;;;;;;;8.20;6.55;;;;;;;21.47;64.80;99144.03;4996434;28;102710;-59
2021/08/25 08:55:01;;;;;;;7.82;7.15;;;;;;;21.58;62.79;99145.50;4998930;28;104660;-59
2021/08/25 08:57:31;;;;;;;7.03;6.43;;;;;;;22.64;62.38;99145.06;5001807;28;103219;-60
2021/08/25 09:00:00;;;;;;;7.60;6.90;;;;;;;22.32;60.69;99146.00;4997029;28;103329;-59
2021/08/25 09:02:42;;;;;;;7.00;6.40;;;;;;;22.36;60.68;99141.97;4991098;28;102619;-60
2021/08/25 09:05:22;;;;;;;6.63;6.03;;;;;;;23.36;60.39;99132.94;4999790;28;102914;-60
2021/08/25 09:07:52;;;;;;;7.10;6.47;;;;;;;22.37;59.19;99143.63;4999192;28;103332;-59
2021/08/25 09:10:26;;;;;;;6.38;5.80;;;;;;;22.64;60.22;99139.69;4977983;28;103028;-59
2021/08/25 09:12:57;;;;;;;6.90;6.20;;;;;;;22.26;61.12;99141.31;4995328;28;102552;-59
2021/08/25 09:15:26;;;;;;;6.35;5.75;;;;;;;22.23;62.04;99135.47;4999230;28;103690;-59
2021/08/25 09:17:59;;;;;;;7.18;5.57;;;;;;;21.58;63.92;99134.75;5001497;28;103335;-59
2021/08/25 09:20:29;;;;;;;6.78;5.95;;;;;;;21.49;62.47;99135.78;4987912;28;103333;-59
2021/08/25 09:23:08;;;;;;;5.75;5.25;;;;;;;22.32;60.18;99129.88;4994966;28;102695;-58
2021/08/25 09:25:37;;;;;;;6.30;5.70;;;;;;;22.95;59.90;99136.97;4997211;28;102664;-59
2021/08/25 09:28:09;;;;;;;5.95;5.35;;;;;;;22.09;61.26;99123.56;4975802;28;103975;-59
2021/08/25 09:30:54;;;;;;;5.78;5.20;;;;;;;22.43;60.66;99131.31;4995256;28;103208;-59
2021/08/25 09:41:28;;;;;;;6.25;5.72;;;;;;;21.82;60.80;99126.63;4981142;28;103898;-64
2021/08/25 09:43:58;;;;;;;5.65;5.15;;;;;;;22.62;63.31;99119.31;4991137;28;103240;-65
2021/08/25 09:46:26;;;;;;;5.70;5.18;;;;;;;22.89;59.20;99126.91;4997487;28;103143;-66
2021/08/25 09:48:56;;;;;;;5.55;5.00;;;;;;;23.67;55.50;99117.50;4996504;28;102680;-66
2021/08/25 09:51:26;;;;;;;5.00;4.60;;;;;;;23.59;56.24;99114.91;4998457;28;103296;-67
2021/08/25 09:54:05;;;;;;;5.65;5.03;;;;;;;23.51;56.08;99112.28;4995784;28;103211;-59
2021/08/25 09:56:36;;;;;;;6.00;5.40;;;;;;;22.20;60.43;99112.44;4979499;28;102663;-58
2021/08/25 09:59:07;;;;;;;6.03;5.43;;;;;;;21.45;61.60;99110.22;5000440;28;102691;-65
2021/08/25 10:01:36;;;;;;;5.10;4.60;;;;;;;23.06;58.54;99098.81;4993358;28;103051;-65
2021/08/25 10:04:06;;;;;;;7.68;5.45;;;;;;;23.45;55.80;99093.28;4997501;28;103260;-66
2021/08/25 10:06:37;;;;;;;5.53;5.03;;;;;;;22.69;57.49;99093.34;4997640;28;102584;-66
2021/08/25 10:09:06;;;;;;;4.72;4.22;;;;;;;23.50;55.43;99094.41;4989099;28;102730;-65
2021/08/25 10:11:37;;;;;;;4.93;4.13;;;;;;;24.32;53.08;99086.25;4989265;28;103411;-65
2021/08/25 10:14:10;;;;;;;4.63;4.22;;;;;;;23.11;54.37;99093.72;4996378;28;104020;-66
2021/08/25 10:16:44;;;;;;;5.97;4.95;;;;;;;21.79;56.17;99105.47;4976286;28;102768;-66
2021/08/25 10:19:36;;;;;;;5.47;4.50;;;;;;;22.64;57.52;99096.59;5002600;28;103016;-59
2021/08/25 10:22:24;;;;;;;4.68;4.28;;;;;;;23.29;56.01;99101.50;4993810;28;104090;-65
2021/08/25 10:25:05;;;;;;;5.00;4.50;;;;;;;22.36;55.23;99098.06;4990295;28;103209;-66
2021/08/25 10:27:36;;;;;;;4.60;4.20;;;;;;;22.22;58.60;99091.56;4983772;28;102705;-65
2021/08/25 10:30:13;;;;;;;5.15;4.65;;;;;;;20.76;59.78;99090.91;4994928;28;103811;-66
2021/08/25 10:33:13;;;;;;;6.47;4.50;;;;;;;21.65;57.97;99090.03;4999597;28;104007;-66
2021/08/25 10:35:44;;;;;;;4.97;4.57;;;;;;;21.40;59.62;99091.94;5000376;28;103241;-67
2021/08/25 10:38:23;;;;;;;5.93;5.30;;;;;;;21.72;57.31;99081.13;4999458;28;102812;-66
2021/08/25 10:40:53;;;;;;;6.78;4.82;;;;;;;21.57;58.49;99084.69;4994474;28;104229;-66
2021/08/25 10:43:43;;;;;;;6.28;4.82;;;;;;;21.87;57.80;99078.56;4984120;28;103256;-66
2021/08/25 10:46:15;;;;;;;5.18;4.68;;;;;;;22.01;56.34;99055.53;4982551;28;103289;-67
2021/08/25 10:48:50;;;;;;;5.22;4.72;;;;;;;20.92;59.66;99067.75;4991221;28;102661;-60
2021/08/25 10:51:40;;;;;;;5.05;4.60;;;;;;;21.18;56.73;99058.53;4984155;28;102659;-60
2021/08/25 10:54:13;;;;;;;4.70;4.30;;;;;;;21.61;58.11;99053.78;4965529;28;104213;-59
2021/08/25 10:56:46;;;;;;;4.70;4.30;;;;;;;22.94;55.79;99054.44;4969001;28;104027;-60
2021/08/25 10:59:20;;;;;;;5.38;4.88;;;;;;;21.17;54.86;99040.75;4996787;28;102760;-60
2021/08/25 11:01:55;;;;;;;5.60;4.60;;;;;;;21.43;57.90;99050.44;4982779;28;102788;-61
2021/08/25 11:04:23;;;;;;;5.53;4.80;;;;;;;21.64;56.60;99043.50;4994727;28;104045;-60
2021/08/25 11:06:54;;;;;;;5.28;4.78;;;;;;;20.94;57.48;99038.88;4994070;28;103975;-60
2021/08/25 11:09:28;;;;;;;5.40;4.82;;;;;;;21.45;56.78;99038.50;4978283;28;102836;-60
2021/08/25 11:12:02;;;;;;;6.70;4.57;;;;;;;22.10;54.16;99044.53;5000696;28;102741;-66
2021/08/25 11:14:44;;;;;;;5.25;4.20;;;;;;;22.26;54.52;99038.25;4998772;28;104064;-66
2021/08/25 11:17:17;;;;;;;5.25;4.22;;;;;;;22.50;52.96;99033.56;4998844;28;103200;-65
2021/08/25 11:19:47;;;;;;;5.47;4.38;;;;;;;22.59;52.31;99033.50;5001993;28;102693;-66
2021/08/25 11:22:18;;;;;;;4.60;4.20;;;;;;;23.78;50.11;99029.88;4995359;28;104096;-66
2021/08/25 11:24:48;;;;;;;5.28;4.40;;;;;;;23.13;50.24;99020.78;4998995;28;103340;-60
2021/08/25 11:27:26;;;;;;;5.38;4.75;;;;;;;22.52;52.32;99022.59;5000991;28;103243;-60
2021/08/25 11:30:02;;;;;;;6.45;5.38;;;;;;;21.73;55.19;99014.72;5000374;28;102977;-60
2021/08/25 11:32:53;;;;;;;5.47;4.88;;;;;;;21.06;56.67;99016.88;4999247;28;102647;-59
2021/08/25 11:35:25;;;;;;;5.85;5.25;;;;;;;21.56;57.26;99018.50;4981301;28;104237;-60
2021/08/25 11:37:55;;;;;;;5.85;4.78;;;;;;;22.02;54.90;99003.38;5002375;28;103360;-60
2021/08/25 11:40:25;;;;;;;6.82;4.90;;;;;;;22.19;53.20;99007.66;4995618;28;102768;-60
2021/08/25 11:42:53;;;;;;;7.18;4.82;;;;;;;22.16;51.80;98998.09;4970063;28;102808;-60
2021/08/25 11:45:28;;;;;;;5.75;5.00;;;;;;;22.89;52.28;99006.53;4972783;28;103330;-60
2021/08/25 11:47:58;;;;;;;5.63;4.70;;;;;;;22.34;51.96;98998.63;4997610;28;103207;-60